createdAt,value
2022-11-24T00:04:16.967Z,26.83
2022-11-24T00:09:12.192Z,27.67
2022-11-24T00:14:07.841Z,29.27
2022-11-24T00:19:02.495Z,28.77
2022-11-24T00:23:56.041Z,26.48
2022-11-24T00:28:52.535Z,30.63
2022-11-24T00:33:49.128Z,31.08
2022-11-24T00:38:42.870Z,28.90
2022-11-24T00:43:36.247Z,34.92
2022-11-24T00:48:29.676Z,32.10
2022-11-24T00:53:24.286Z,35.83
2022-11-24T00:58:17.525Z,33.58
2022-11-24T01:03:10.790Z,30.75
2022-11-24T01:08:04.010Z,32.08
2022-11-24T01:12:59.080Z,30.85
2022-11-24T01:17:52.425Z,31.20
2022-11-24T01:22:45.590Z,26.40
2022-11-24T01:27:41.423Z,31.48
2022-11-24T01:32:37.445Z,34.17
2022-11-24T01:37:30.773Z,29.70
2022-11-24T01:42:24.101Z,31.10
2022-11-24T01:47:35.098Z,34.88
2022-11-24T01:52:35.839Z,35.95
2022-11-24T01:57:35.269Z,30.05
2022-11-24T02:02:30.966Z,30.83
2022-11-24T02:07:25.910Z,31.98
2022-11-24T02:12:20.461Z,30.02
2022-11-24T02:17:13.731Z,28.67
2022-11-24T02:22:13.496Z,29.05
2022-11-24T02:27:08.431Z,29.25
2022-11-24T02:32:05.443Z,32.17
2022-11-24T02:36:58.620Z,33.63
2022-11-24T02:41:55.077Z,33.60
2022-11-24T02:46:49.681Z,34.97
2022-11-24T02:51:42.948Z,31.20
2022-11-24T02:56:36.184Z,32.10
2022-11-24T03:01:29.451Z,35.45
2022-11-24T03:06:24.175Z,36.33
2022-11-24T03:11:17.543Z,38.90
2022-11-24T03:16:11.694Z,31.45
2022-11-24T03:21:08.109Z,31.30
2022-11-24T03:26:10.356Z,28.23
2022-11-24T03:31:03.871Z,30.77
2022-11-24T03:35:57.104Z,33.30
2022-11-24T03:40:50.458Z,29.38
2022-11-24T03:45:55.341Z,31.63
2022-11-24T03:50:56.341Z,32.35
2022-11-24T03:55:49.595Z,36.70
2022-11-24T04:00:43.041Z,39.67
2022-11-24T04:05:37.744Z,40.10
2022-11-24T04:10:31.165Z,43.47
2022-11-24T04:15:24.446Z,39.33
2022-11-24T04:20:18.688Z,38.53
2022-11-24T04:25:13.599Z,38.80
2022-11-24T04:30:08.704Z,34.30
2022-11-24T04:35:03.079Z,33.80
2022-11-24T04:39:56.554Z,37.08
2022-11-24T04:44:51.212Z,35.85
2022-11-24T04:49:44.448Z,35.58
2022-11-24T04:54:38.318Z,31.27
2022-11-24T04:59:31.700Z,31.65
2022-11-24T05:04:26.361Z,28.08
2022-11-24T05:09:19.638Z,27.60
2022-11-24T05:14:12.929Z,32.40
2022-11-24T05:19:06.248Z,25.50
2022-11-24T05:24:01.077Z,28.20
2022-11-24T05:28:54.502Z,23.33
2022-11-24T05:33:47.813Z,21.67
2022-11-24T05:38:44.168Z,20.83
2022-11-24T05:43:38.798Z,53.53
2022-11-24T05:48:32.103Z,27.50
2022-11-24T05:53:26.468Z,21.90
2022-11-24T05:58:20.063Z,17.08
2022-11-24T06:03:15.032Z,18.13
2022-11-24T06:08:08.302Z,18.05
2022-11-24T06:13:06.320Z,17.42
2022-11-24T06:17:59.694Z,17.15
2022-11-24T06:22:54.283Z,20.08
2022-11-24T06:27:51.883Z,20.13
2022-11-24T06:32:49.689Z,20.63
2022-11-24T06:37:43.214Z,19.75
2022-11-24T06:42:38.329Z,19.45
2022-11-24T06:47:31.488Z,16.85
2022-11-24T06:52:24.665Z,18.60
2022-11-24T06:57:18.074Z,19.25
2022-11-24T07:02:15.145Z,21.42
2022-11-24T07:07:08.369Z,19.58
2022-11-24T07:12:04.936Z,20.77
2022-11-24T07:16:58.191Z,20.83
2022-11-24T07:21:52.854Z,24.27
2022-11-24T07:26:46.378Z,20.80
2022-11-24T07:31:39.605Z,26.38
2022-11-24T07:36:32.919Z,23.73
2022-11-24T07:41:27.515Z,43.75
2022-11-24T07:46:21.757Z,42.65
2022-11-24T07:51:16.266Z,51.30
2022-11-24T07:56:10.914Z,37.55
2022-11-24T08:01:13.003Z,33.72
2022-11-24T08:11:19.717Z,26.40
2022-11-24T08:16:16.155Z,23.73
2022-11-24T08:21:14.683Z,20.10
2022-11-24T08:26:10.799Z,18.23
2022-11-24T08:31:05.717Z,21.23
2022-11-24T08:36:04.102Z,13.10
2022-11-24T08:41:01.515Z,22.10
2022-11-24T08:45:54.827Z,24.60
2022-11-24T08:50:48.082Z,17.33
2022-11-24T08:55:42.670Z,18.33
2022-11-24T09:00:35.806Z,26.17
2022-11-24T09:05:51.342Z,20.42
2022-11-24T09:10:46.896Z,22.40
2022-11-24T09:15:40.300Z,21.63
2022-11-24T09:20:33.503Z,22.60
2022-11-24T09:25:26.802Z,22.50
2022-11-24T09:30:23.268Z,20.30
2022-11-24T09:35:16.730Z,20.00
2022-11-24T09:40:13.772Z,27.00
2022-11-24T09:45:26.290Z,29.92
2022-11-24T09:50:34.490Z,24.23
2022-11-24T09:55:36.034Z,27.30
2022-11-24T10:00:30.342Z,25.20
2022-11-24T10:05:33.095Z,27.80
2022-11-24T10:10:36.115Z,27.98
2022-11-24T10:15:43.882Z,27.42
2022-11-24T10:20:52.330Z,27.30
2022-11-24T10:25:52.836Z,27.52
2022-11-24T10:35:46.043Z,28.30
2022-11-24T10:40:57.864Z,29.38
2022-11-24T10:45:51.871Z,26.70
2022-11-24T10:50:46.524Z,26.60
2022-11-24T10:55:59.155Z,27.05
2022-11-24T11:00:52.382Z,21.45
2022-11-24T11:05:50.355Z,24.38
2022-11-24T11:10:44.836Z,10.32
2022-11-24T11:15:38.680Z,5.15
2022-11-24T11:20:34.311Z,4.97
2022-11-24T11:25:33.304Z,3.80
2022-11-24T11:35:42.336Z,3.58
2022-11-24T11:40:37.908Z,4.53
2022-11-24T11:45:36.640Z,5.50
2022-11-24T11:51:14.991Z,7.97
2022-11-24T11:56:10.046Z,12.82
2022-11-24T12:01:13.339Z,4.82
2022-11-24T12:06:21.912Z,5.93
2022-11-24T12:11:22.719Z,11.40
2022-11-24T12:16:30.934Z,7.65
2022-11-24T12:21:30.911Z,10.25
2022-11-24T12:26:31.488Z,13.52
2022-11-24T12:31:35.430Z,10.70
2022-11-24T12:36:42.254Z,10.13
2022-11-24T12:41:53.273Z,9.43
2022-11-24T12:46:54.896Z,7.05
2022-11-24T12:51:56.055Z,9.80
2022-11-24T12:56:59.912Z,9.00
2022-11-24T13:02:00.662Z,9.68
2022-11-24T13:07:00.855Z,14.68
2022-11-24T13:12:09.038Z,13.35
2022-11-24T13:22:25.817Z,10.77
2022-11-24T13:27:44.401Z,14.55
2022-11-24T13:32:47.534Z,14.10
2022-11-24T13:37:51.733Z,15.90
2022-11-24T13:43:18.590Z,14.27
2022-11-24T13:48:56.821Z,21.80
2022-11-24T13:53:54.737Z,17.67
2022-11-24T13:58:50.950Z,16.17
2022-11-24T14:04:34.019Z,17.60
2022-11-24T14:09:35.379Z,33.08
2022-11-24T14:14:29.207Z,30.10
2022-11-24T14:19:22.360Z,19.05
2022-11-24T14:24:24.562Z,21.35
2022-11-24T14:29:23.140Z,17.17
2022-11-24T14:34:21.268Z,24.02
2022-11-24T14:39:18.528Z,20.60
2022-11-24T14:44:21.464Z,16.55
2022-11-24T14:49:21.557Z,33.38
2022-11-24T14:54:19.479Z,20.80
2022-11-24T14:59:23.617Z,23.08
2022-11-24T15:09:39.746Z,19.27
2022-11-24T15:14:45.513Z,16.48
2022-11-24T15:19:41.653Z,14.65
2022-11-24T15:24:35.769Z,23.48
2022-11-24T15:29:29.580Z,14.27
2022-11-24T15:34:24.624Z,13.55
2022-11-24T15:39:18.690Z,24.38
2022-11-24T15:44:12.832Z,28.20
2022-11-24T15:49:07.286Z,25.40
2022-11-24T15:54:02.848Z,23.92
2022-11-24T15:58:56.410Z,17.52
2022-11-24T16:03:50.168Z,13.35
2022-11-24T16:08:47.130Z,19.00
2022-11-24T16:13:48.406Z,16.65
2022-11-24T16:18:46.074Z,12.75
2022-11-24T16:23:39.904Z,16.25
2022-11-24T16:28:34.395Z,11.75
2022-11-24T16:33:30.170Z,12.80
2022-11-24T16:38:24.114Z,15.57
2022-11-24T16:43:17.860Z,11.50
2022-11-24T16:48:11.905Z,11.57
2022-11-24T16:53:09.647Z,15.32
2022-11-24T16:58:05.540Z,12.57
2022-11-24T17:03:03.628Z,13.38
2022-11-24T17:07:57.496Z,13.45
2022-11-24T17:12:53.398Z,17.17
2022-11-24T17:18:16.120Z,12.07
2022-11-24T17:23:00.656Z,14.07
2022-11-24T17:28:01.801Z,11.90
2022-11-24T17:32:58.584Z,12.25
2022-11-24T17:38:02.174Z,12.60
2022-11-24T17:42:58.596Z,12.63
2022-11-24T17:47:54.227Z,11.23
2022-11-24T17:52:51.209Z,10.13
2022-11-24T17:58:01.490Z,10.88
2022-11-24T18:02:58.041Z,9.70
2022-11-24T18:08:22.402Z,11.15
2022-11-24T18:13:34.285Z,9.35
2022-11-24T18:18:37.883Z,9.95
2022-11-24T18:23:36.898Z,10.02
2022-11-24T18:28:31.119Z,10.63
2022-11-24T18:33:33.491Z,10.85
2022-11-24T18:38:28.261Z,11.27
2022-11-24T18:43:24.554Z,14.25
2022-11-24T18:48:18.134Z,10.90
2022-11-24T18:53:13.107Z,12.40
2022-11-24T18:58:06.727Z,10.27
2022-11-24T19:03:03.651Z,10.18
2022-11-24T19:07:57.594Z,9.13
2022-11-24T19:12:52.567Z,9.25
2022-11-24T19:17:47.538Z,11.55
2022-11-24T19:22:41.199Z,17.55
2022-11-24T19:27:38.261Z,10.27
2022-11-24T19:32:34.848Z,10.25
2022-11-24T19:37:33.002Z,9.45
2022-11-24T19:42:26.994Z,8.10
2022-11-24T19:47:21.229Z,10.95
2022-11-24T19:52:19.288Z,9.80
2022-11-24T19:57:15.526Z,9.15
2022-11-24T20:02:09.755Z,9.88
2022-11-24T20:07:12.933Z,12.10
2022-11-24T20:12:18.190Z,8.60
2022-11-24T20:17:14.613Z,8.85
2022-11-24T20:22:09.840Z,8.15
2022-11-24T20:27:04.667Z,8.75
2022-11-24T20:32:03.121Z,9.05
2022-11-24T20:37:00.801Z,10.02
2022-11-24T20:41:56.821Z,8.52
2022-11-24T20:46:51.481Z,11.80
2022-11-24T20:51:55.365Z,10.27
2022-11-24T20:56:50.211Z,8.90
2022-11-24T21:01:50.455Z,8.55
2022-11-24T21:06:45.711Z,8.23
2022-11-24T21:11:41.353Z,8.02
2022-11-24T21:16:37.861Z,7.88
2022-11-24T21:21:35.622Z,7.35
2022-11-24T21:26:32.084Z,7.72
2022-11-24T21:31:27.853Z,7.90
2022-11-24T21:36:25.323Z,8.35
2022-11-24T21:41:26.817Z,6.75
2022-11-24T21:46:20.566Z,6.25
2022-11-24T21:51:22.657Z,7.50
2022-11-24T21:56:20.625Z,6.93
2022-11-24T22:01:14.665Z,7.95
2022-11-24T22:06:09.073Z,8.40
2022-11-24T22:11:06.211Z,9.27
2022-11-24T22:16:04.579Z,7.60
2022-11-24T22:21:00.880Z,7.65
2022-11-24T22:25:54.180Z,7.07
2022-11-24T22:30:48.906Z,7.70
2022-11-24T22:35:42.300Z,6.75
2022-11-24T22:40:35.680Z,7.45
2022-11-24T22:45:36.983Z,6.72
2022-11-24T22:50:32.081Z,8.02
2022-11-24T22:55:25.869Z,8.48
2022-11-24T23:00:19.996Z,8.20
2022-11-24T23:05:18.032Z,6.47
2022-11-24T23:15:09.597Z,6.88
2022-11-24T23:20:05.647Z,8.35
2022-11-24T23:24:59.080Z,8.45
2022-11-24T23:29:53.889Z,7.88
2022-11-24T23:34:47.327Z,20.65
2022-11-24T23:39:40.805Z,9.25
2022-11-24T23:44:34.397Z,9.32
2022-11-24T23:49:31.290Z,8.40
2022-11-24T23:54:24.592Z,8.95
2022-11-24T23:59:19.136Z,7.80
